Time;durP1;ratioP1;P1;durP2;ratioP2;P2;SDS_P1;SDS_P2;PMS_P1;PMS_P2;Temp;Humidity;BMP_temperature;BMP_pressure;BME280_temperature;BME280_humidity;BME280_pressure;Samples;Min_cycle;Max_cycle;Signal;HPM_P1;HPM_P2
2022/03/25 00:01:13;;;;;;;74.47;40.63;;;;;;;8.24;65.17;102709.06;5064944;28;20065;-91
2022/03/25 00:03:38;;;;;;;70.22;39.65;;;;;;;8.21;65.34;102719.69;5069041;28;20081;-91
2022/03/25 00:06:04;;;;;;;74.78;39.38;;;;;;;8.06;65.68;102699.50;5067562;28;20028;-92
2022/03/25 00:08:30;;;;;;;77.13;40.70;;;;;;;8.09;65.66;102715.38;5056593;28;20372;-91
2022/03/25 00:10:55;;;;;;;73.30;40.05;;;;;;;7.96;66.74;102704.03;5069790;28;20029;-91
2022/03/25 00:13:20;;;;;;;75.13;39.60;;;;;;;7.95;66.02;102704.94;5059113;28;20440;-91
2022/03/25 00:15:46;;;;;;;71.50;39.92;;;;;;;7.96;65.97;102714.63;5059655;28;20031;-91
2022/03/25 00:18:11;;;;;;;72.88;39.70;;;;;;;7.94;66.07;102719.09;5086101;28;20024;-91
2022/03/25 00:20:36;;;;;;;71.40;39.30;;;;;;;7.90;65.89;102720.03;5059534;28;20074;-92
2022/03/25 00:23:02;;;;;;;80.68;40.92;;;;;;;7.88;65.97;102724.44;5056542;28;20418;-92
2022/03/25 00:25:28;;;;;;;71.57;39.40;;;;;;;7.79;66.43;102723.66;5066432;28;20060;-91
2022/03/25 00:27:54;;;;;;;72.55;39.58;;;;;;;7.74;66.64;102723.72;5069511;28;20024;-92
2022/03/25 00:30:19;;;;;;;74.07;41.50;;;;;;;7.71;67.01;102727.25;5079450;28;20031;-91
2022/03/25 00:32:44;;;;;;;69.55;39.55;;;;;;;7.65;66.56;102722.03;5069274;28;20069;-92
2022/03/25 00:35:10;;;;;;;71.18;39.00;;;;;;;7.66;66.76;102725.53;5074132;28;20017;-93
2022/03/25 00:37:35;;;;;;;72.70;40.13;;;;;;;7.53;67.03;102705.34;5055864;28;20060;-92
2022/03/25 00:40:01;;;;;;;72.93;39.30;;;;;;;7.59;67.11;102729.13;5063313;28;20062;-92
2022/03/25 00:42:27;;;;;;;73.32;40.13;;;;;;;7.47;67.47;102704.47;5073923;28;20036;-92
2022/03/25 00:44:54;;;;;;;74.40;39.95;;;;;;;7.49;67.28;102715.97;5065952;28;20025;-92
2022/03/25 00:47:20;;;;;;;73.60;39.53;;;;;;;7.54;67.18;102723.88;5066173;28;20462;-92
2022/03/25 00:49:45;;;;;;;74.60;39.90;;;;;;;7.48;67.87;102723.91;5059479;28;20094;-91
2022/03/25 00:52:10;;;;;;;71.45;41.28;;;;;;;7.39;67.91;102724.84;5060761;28;20115;-92
2022/03/25 00:54:36;;;;;;;75.97;40.92;;;;;;;7.36;68.31;102726.69;5063794;28;20040;-91
2022/03/25 00:57:02;;;;;;;77.65;41.97;;;;;;;7.30;67.88;102716.97;5065724;28;20047;-92
2022/03/25 00:59:29;;;;;;;78.50;41.60;;;;;;;7.22;68.25;102713.50;5053396;28;20024;-92
2022/03/25 01:01:55;;;;;;;68.05;38.78;;;;;;;7.26;68.23;102714.38;5062608;28;20050;-92
2022/03/25 01:04:20;;;;;;;79.07;39.90;;;;;;;7.18;68.76;102707.34;5060506;28;20031;-91
2022/03/25 01:06:46;;;;;;;76.53;40.90;;;;;;;7.15;69.05;102712.69;5063369;28;20398;-91
2022/03/25 01:09:11;;;;;;;73.80;39.15;;;;;;;7.11;69.13;102718.03;5067446;28;20016;-91
2022/03/25 01:11:36;;;;;;;73.70;40.63;;;;;;;7.09;69.08;102727.72;5059618;28;20025;-91
2022/03/25 01:14:03;;;;;;;77.00;39.72;;;;;;;7.06;69.12;102723.31;5057766;28;20032;-92
2022/03/25 01:16:29;;;;;;;76.65;40.88;;;;;;;7.00;69.22;102715.44;5052288;28;20039;-92
2022/03/25 01:18:54;;;;;;;68.72;39.03;;;;;;;7.00;69.40;102718.06;5065853;28;20024;-91
2022/03/25 01:21:19;;;;;;;78.80;39.53;;;;;;;6.97;69.33;102715.44;5060101;28;20588;-92
2022/03/25 01:23:45;;;;;;;74.78;40.40;;;;;;;6.95;69.35;102715.47;5052232;28;20025;-90
2022/03/25 01:26:11;;;;;;;76.45;41.40;;;;;;;6.91;69.25;102718.13;5058363;28;20122;-90
2022/03/25 01:28:36;;;;;;;75.45;39.67;;;;;;;6.91;69.21;102704.91;5064513;28;20494;-91
2022/03/25 01:31:03;;;;;;;75.90;41.03;;;;;;;6.97;68.83;102723.38;5055974;28;20021;-90
2022/03/25 01:33:30;;;;;;;72.60;40.67;;;;;;;6.93;69.38;102708.41;5066998;28;20389;-90
2022/03/25 01:35:58;;;;;;;74.22;39.38;;;;;;;6.92;69.55;102720.75;5057309;28;20071;-91
2022/03/25 01:38:25;;;;;;;77.72;40.50;;;;;;;6.89;69.61;102706.66;5050093;28;20419;-91
2022/03/25 01:40:51;;;;;;;73.40;38.78;;;;;;;6.91;69.57;102715.50;5058880;28;20500;-91
2022/03/25 01:43:16;;;;;;;70.70;38.35;;;;;;;6.87;69.10;102701.38;5059622;28;20024;-90
2022/03/25 01:45:42;;;;;;;65.70;36.72;;;;;;;6.87;69.50;102706.69;5058018;28;20037;-91
2022/03/25 01:48:10;;;;;;;73.45;38.90;;;;;;;6.97;68.77;102705.72;5058848;28;20092;-90
2022/03/25 01:50:36;;;;;;;71.45;39.03;;;;;;;6.96;69.24;102711.91;5057090;28;20032;-90
2022/03/25 01:53:03;;;;;;;71.40;37.58;;;;;;;6.96;68.65;102705.75;5054487;28;20127;-91
2022/03/25 01:55:36;;;;;;;67.60;35.25;;;;;;;6.98;68.52;102707.50;5059515;28;20037;-91
2022/03/25 01:58:02;;;;;;;71.85;38.15;;;;;;;7.03;68.06;102707.47;5064633;28;20039;-92
2022/03/25 02:00:30;;;;;;;71.90;37.90;;;;;;;7.01;68.17;102711.00;5061432;28;20025;-89
2022/03/25 02:02:56;;;;;;;67.57;36.42;;;;;;;7.05;67.93;102718.03;5082976;28;20107;-92
2022/03/25 02:05:21;;;;;;;70.50;37.13;;;;;;;6.97;67.90;102704.84;5066068;28;20165;-89
2022/03/25 02:07:47;;;;;;;73.18;37.83;;;;;;;6.97;67.89;102707.50;5063188;28;20036;-93
2022/03/25 02:10:13;;;;;;;73.63;38.42;;;;;;;6.95;67.96;102704.00;5079446;28;20032;-92
2022/03/25 02:12:39;;;;;;;68.75;36.60;;;;;;;6.91;67.81;102707.53;5068443;28;20551;-93
2022/03/25 02:15:05;;;;;;;72.25;38.15;;;;;;;6.87;68.01;102716.41;5079063;28;20381;-92
2022/03/25 02:17:31;;;;;;;73.00;35.53;;;;;;;6.78;68.28;102712.03;5072844;28;20027;-91
2022/03/25 02:19:57;;;;;;;66.97;37.05;;;;;;;6.74;68.35;102712.94;5070433;28;20032;-90
2022/03/25 02:22:22;;;;;;;68.00;37.10;;;;;;;6.69;68.10;102712.97;5079409;28;20278;-91
2022/03/25 02:24:49;;;;;;;66.28;35.30;;;;;;;6.63;68.46;102706.81;5070404;28;20025;-92
2022/03/25 02:27:16;;;;;;;67.60;36.33;;;;;;;6.56;68.68;102713.00;5071289;28;21018;-91
2022/03/25 02:29:42;;;;;;;67.65;36.45;;;;;;;6.52;68.44;102709.50;5070116;28;20469;-90
2022/03/25 02:32:07;;;;;;;65.57;34.97;;;;;;;6.52;68.86;102713.91;5068626;28;20090;-91
2022/03/25 02:34:33;;;;;;;69.85;37.53;;;;;;;6.47;68.76;102713.91;5086473;28;20372;-91
2022/03/25 02:36:58;;;;;;;68.50;35.70;;;;;;;6.42;68.94;102708.66;5072194;28;20062;-93
2022/03/25 02:39:23;;;;;;;63.63;35.63;;;;;;;6.41;68.84;102713.97;5089153;28;20032;-91
2022/03/25 02:41:49;;;;;;;70.97;36.67;;;;;;;6.30;68.76;102707.81;5076630;28;20473;-91
2022/03/25 02:44:14;;;;;;;66.13;35.70;;;;;;;6.30;68.53;102703.41;5082284;28;20071;-91
2022/03/25 02:46:40;;;;;;;69.07;35.35;;;;;;;6.29;68.52;102703.41;5065356;28;20083;-92
2022/03/25 02:49:05;;;;;;;65.95;35.60;;;;;;;6.29;68.50;102714.88;5067001;28;20044;-91
2022/03/25 02:51:30;;;;;;;66.53;36.15;;;;;;;6.23;68.88;102707.84;5065895;28;20033;-92
2022/03/25 02:53:56;;;;;;;64.68;35.47;;;;;;;6.20;68.62;102710.50;5067167;28;20082;-91
2022/03/25 02:56:21;;;;;;;66.10;35.35;;;;;;;6.17;68.64;102712.25;5067699;28;20045;-93
2022/03/25 02:58:47;;;;;;;70.68;37.28;;;;;;;6.11;68.86;102713.16;5070613;28;20036;-92
2022/03/25 03:01:13;;;;;;;67.72;34.97;;;;;;;6.05;68.60;102707.88;5067984;28;20081;-92
2022/03/25 03:03:40;;;;;;;64.45;32.78;;;;;;;6.08;68.50;102718.47;5055194;28;20053;-91
2022/03/25 03:06:06;;;;;;;63.92;34.25;;;;;;;6.06;68.49;102714.03;5056182;28;20054;-90
2022/03/25 03:08:31;;;;;;;65.65;35.85;;;;;;;5.95;68.87;102712.31;5059329;28;20020;-91
2022/03/25 03:10:57;;;;;;;64.07;35.50;;;;;;;5.88;69.09;102715.81;5063184;28;20025;-91
2022/03/25 03:13:23;;;;;;;63.95;33.95;;;;;;;5.77;69.45;102707.03;5050368;28;20025;-90
2022/03/25 03:15:48;;;;;;;71.55;36.95;;;;;;;5.70;69.51;102705.28;5062767;28;20028;-91
2022/03/25 03:18:14;;;;;;;74.75;35.97;;;;;;;5.62;69.49;102705.28;5072892;28;20024;-90
2022/03/25 03:20:40;;;;;;;62.45;34.20;;;;;;;5.66;69.41;102714.97;5060195;28;20029;-90
2022/03/25 03:23:07;;;;;;;65.07;33.83;;;;;;;5.58;69.38;102700.00;5058455;28;20050;-91
2022/03/25 03:25:33;;;;;;;65.03;34.05;;;;;;;5.59;69.53;102709.69;5069356;28;20040;-91
2022/03/25 03:27:59;;;;;;;67.55;33.50;;;;;;;5.49;69.23;102695.59;5057695;28;20033;-90
2022/03/25 03:30:24;;;;;;;69.30;35.15;;;;;;;5.52;69.35;102702.63;5053955;28;20123;-89
2022/03/25 03:32:55;;;;;;;66.30;35.08;;;;;;;5.54;69.21;102699.13;5066404;28;20056;-89
2022/03/25 03:35:20;;;;;;;62.70;33.72;;;;;;;5.54;68.91;102707.03;5058386;28;20435;-91
2022/03/25 03:37:46;;;;;;;70.50;35.53;;;;;;;5.47;69.21;102700.00;5065973;28;20037;-90
2022/03/25 03:40:14;;;;;;;66.03;35.63;;;;;;;5.46;68.88;102704.41;5073586;28;20020;-90
2022/03/25 03:42:40;;;;;;;65.70;34.28;;;;;;;5.43;68.71;102706.16;5060903;28;20025;-90
2022/03/25 03:45:07;;;;;;;64.72;34.67;;;;;;;5.34;69.27;102704.38;5061622;28;20539;-90
2022/03/25 03:47:32;;;;;;;71.60;35.20;;;;;;;5.32;68.99;102702.66;5067840;28;20097;-90
2022/03/25 03:49:57;;;;;;;64.70;34.17;;;;;;;5.30;69.23;102715.81;5054102;28;20441;-90
2022/03/25 03:52:23;;;;;;;62.00;32.75;;;;;;;5.19;69.15;102714.97;5068206;28;20016;-90
2022/03/25 03:54:49;;;;;;;66.82;33.97;;;;;;;5.19;69.27;102714.97;5065925;28;20029;-90
2022/03/25 03:57:14;;;;;;;59.78;32.30;;;;;;;5.15;68.77;102710.53;5066736;28;20067;-90
2022/03/25 03:59:39;;;;;;;64.55;33.90;;;;;;;5.14;69.12;102707.03;5060578;28;20055;-90
2022/03/25 04:02:05;;;;;;;62.03;33.55;;;;;;;5.15;69.03;102714.06;5068629;28;20028;-92
2022/03/25 04:04:30;;;;;;;70.25;34.08;;;;;;;5.10;68.85;102710.53;5060678;28;20385;-92
2022/03/25 04:06:55;;;;;;;63.50;34.50;;;;;;;5.07;68.92;102701.72;5052572;28;20033;-91
2022/03/25 04:09:20;;;;;;;62.70;34.15;;;;;;;5.10;68.94;102714.91;5056389;28;20470;-92
2022/03/25 04:11:46;;;;;;;68.70;35.47;;;;;;;5.07;68.83;102715.81;5058685;28;20032;-91
2022/03/25 04:14:11;;;;;;;62.92;35.00;;;;;;;5.04;69.12;102709.63;5066502;28;20035;-91
2022/03/25 04:16:37;;;;;;;65.93;35.40;;;;;;;4.95;69.52;102706.09;5078234;28;20050;-90
2022/03/25 04:19:03;;;;;;;66.05;34.30;;;;;;;4.94;69.11;102719.31;5060015;28;20043;-91
2022/03/25 04:21:28;;;;;;;65.50;33.45;;;;;;;4.89;69.35;102723.66;5069928;28;20488;-89
2022/03/25 04:23:53;;;;;;;64.47;33.08;;;;;;;4.81;69.24;102710.47;5088361;28;20032;-90
2022/03/25 04:26:18;;;;;;;67.22;34.70;;;;;;;4.80;69.41;102711.34;5071971;28;20067;-91
2022/03/25 04:28:44;;;;;;;64.88;34.38;;;;;;;4.83;69.43;102719.25;5084524;28;20031;-90
2022/03/25 04:31:09;;;;;;;66.22;34.25;;;;;;;4.81;69.26;102723.66;5063723;28;20403;-92
2022/03/25 04:33:36;;;;;;;67.55;34.28;;;;;;;4.72;68.96;102707.78;5065403;28;20076;-91
2022/03/25 04:36:02;;;;;;;67.07;35.33;;;;;;;4.76;69.22;102733.31;5065905;28;20708;-91
2022/03/25 04:38:27;;;;;;;68.57;34.30;;;;;;;4.66;69.78;102723.59;5074462;28;20324;-92
2022/03/25 04:40:52;;;;;;;65.95;34.67;;;;;;;4.62;69.90;102727.09;5062234;28;20113;-92
2022/03/25 04:43:18;;;;;;;68.68;33.80;;;;;;;4.51;69.80;102732.31;5055142;28;20020;-91
2022/03/25 04:45:43;;;;;;;63.55;34.40;;;;;;;4.50;70.05;102726.16;5069696;28;20028;-89
2022/03/25 04:48:10;;;;;;;65.30;35.63;;;;;;;4.38;70.15;102710.28;5080840;28;20032;-91
2022/03/25 04:50:36;;;;;;;68.00;36.08;;;;;;;4.35;70.30;102718.22;5070360;28;20024;-92
2022/03/25 04:53:02;;;;;;;62.58;33.38;;;;;;;4.32;70.62;102712.91;5071994;28;20377;-92
2022/03/25 04:55:27;;;;;;;64.55;34.50;;;;;;;4.39;70.25;102734.91;5071985;28;20139;-91
2022/03/25 04:57:53;;;;;;;65.85;34.13;;;;;;;4.39;70.15;102741.09;5072974;28;20043;-90
2022/03/25 05:00:18;;;;;;;69.00;35.60;;;;;;;4.32;70.70;102739.28;5066567;28;20481;-91
2022/03/25 05:02:45;;;;;;;69.47;35.00;;;;;;;4.27;70.75;102732.22;5071582;28;20021;-92
2022/03/25 05:05:10;;;;;;;68.85;34.65;;;;;;;4.24;70.63;102741.88;5071209;28;20016;-92
2022/03/25 05:07:40;;;;;;;68.55;34.47;;;;;;;4.22;70.47;102745.34;5057161;28;20151;-92
2022/03/25 05:10:06;;;;;;;70.45;36.30;;;;;;;4.14;70.39;102728.63;5048789;28;20037;-91
2022/03/25 05:12:31;;;;;;;70.07;36.40;;;;;;;4.12;70.43;102723.34;5067169;28;20035;-92
2022/03/25 05:14:56;;;;;;;67.68;36.38;;;;;;;4.16;70.56;102735.66;5069790;28;20034;-91
2022/03/25 05:17:22;;;;;;;65.28;34.00;;;;;;;4.12;70.42;102731.25;5062343;28;20040;-90
2022/03/25 05:19:47;;;;;;;65.93;35.15;;;;;;;4.08;70.20;102732.09;5056564;28;20064;-92
2022/03/25 05:22:14;;;;;;;65.28;33.92;;;;;;;4.07;70.28;102725.06;5057345;28;20039;-91
2022/03/25 05:24:39;;;;;;;72.35;36.05;;;;;;;4.14;70.27;102740.06;5058388;28;20035;-92
2022/03/25 05:27:05;;;;;;;72.70;35.67;;;;;;;4.14;70.16;102747.06;5059158;28;20402;-92
2022/03/25 05:29:30;;;;;;;68.28;36.17;;;;;;;4.12;70.25;102744.44;5057120;28;20017;-91
2022/03/25 05:31:55;;;;;;;73.72;37.63;;;;;;;4.08;70.51;102742.66;5057911;28;20023;-91
2022/03/25 05:34:21;;;;;;;71.00;37.00;;;;;;;4.07;70.54;102745.28;5056056;28;20029;-91
2022/03/25 05:36:46;;;;;;;69.82;37.60;;;;;;;4.03;70.44;102738.22;5056328;28;20029;-90
2022/03/25 05:39:14;;;;;;;69.55;36.92;;;;;;;4.08;70.11;102749.66;5057517;28;20032;-91
2022/03/25 05:41:40;;;;;;;72.53;36.10;;;;;;;4.09;70.25;102744.41;5057426;28;20191;-90
2022/03/25 05:44:05;;;;;;;68.28;35.67;;;;;;;4.07;70.09;102737.38;5057171;28;20815;-90
2022/03/25 05:46:31;;;;;;;71.57;35.75;;;;;;;4.09;70.28;102746.16;5053787;28;20039;-90
2022/03/25 05:48:56;;;;;;;71.55;36.40;;;;;;;4.07;70.34;102750.56;5059072;28;20029;-91
2022/03/25 05:51:21;;;;;;;70.57;37.60;;;;;;;4.06;70.42;102751.44;5065706;28;20078;-93
2022/03/25 05:53:46;;;;;;;71.43;36.85;;;;;;;4.08;70.51;102753.19;5075789;28;20031;-91
2022/03/25 05:56:12;;;;;;;77.20;37.70;;;;;;;4.08;70.21;102747.03;5064686;28;20115;-91
2022/03/25 05:58:39;;;;;;;76.88;36.08;;;;;;;4.13;70.02;102759.34;5063464;28;20045;-92
2022/03/25 06:01:06;;;;;;;71.32;36.22;;;;;;;4.09;70.41;102759.34;5066164;28;20444;-92
2022/03/25 06:03:32;;;;;;;70.05;36.15;;;;;;;4.09;70.48;102765.47;5062202;28;20466;-91
2022/03/25 06:05:58;;;;;;;71.78;36.33;;;;;;;4.14;70.20;102760.25;5055757;28;20033;-91
2022/03/25 06:08:24;;;;;;;68.78;37.70;;;;;;;4.10;70.64;102755.84;5053871;28;20378;-89
2022/03/25 06:10:50;;;;;;;71.63;37.53;;;;;;;4.08;70.65;102755.81;5063653;28;20124;-90
2022/03/25 06:13:16;;;;;;;69.28;36.63;;;;;;;4.09;70.59;102754.06;5053718;28;20104;-91
2022/03/25 06:15:41;;;;;;;75.15;37.63;;;;;;;4.08;71.05;102766.34;5066760;28;20048;-91
2022/03/25 06:18:08;;;;;;;76.32;39.65;;;;;;;4.15;70.72;102764.66;5066925;28;20037;-91
2022/03/25 06:20:33;;;;;;;73.30;37.25;;;;;;;4.16;70.58;102774.31;5062411;28;20029;-91
2022/03/25 06:22:59;;;;;;;80.45;37.75;;;;;;;4.23;70.60;102778.78;5074708;28;20598;-90
2022/03/25 06:25:24;;;;;;;74.25;36.50;;;;;;;4.30;70.16;102785.81;5077897;28;20143;-90
2022/03/25 06:27:49;;;;;;;74.70;38.67;;;;;;;4.35;70.53;102780.59;5065383;28;20040;-90
2022/03/25 06:30:15;;;;;;;73.28;36.85;;;;;;;4.39;70.25;102770.09;5077162;28;20469;-90
2022/03/25 06:32:42;;;;;;;79.50;39.60;;;;;;;4.48;69.77;102763.97;5065067;28;20036;-91
2022/03/25 06:35:07;;;;;;;74.90;38.30;;;;;;;4.68;69.62;102774.59;5085950;28;20027;-91
2022/03/25 06:37:35;;;;;;;72.38;38.08;;;;;;;4.97;68.60;102780.91;5076932;28;20032;-91
2022/03/25 06:40:00;;;;;;;73.47;38.60;;;;;;;5.13;67.91;102781.78;5077418;28;20068;-92
2022/03/25 06:42:26;;;;;;;76.63;38.60;;;;;;;5.38;67.01;102779.22;5070517;28;20056;-91
2022/03/25 06:44:53;;;;;;;73.60;38.42;;;;;;;5.63;66.51;102783.63;5061563;28;20067;-91
2022/03/25 06:47:19;;;;;;;76.90;38.75;;;;;;;5.70;66.18;102776.63;5071197;28;20059;-91
2022/03/25 06:49:44;;;;;;;74.60;40.97;;;;;;;5.92;65.82;102785.44;5068173;28;20052;-91
2022/03/25 06:52:10;;;;;;;76.32;41.13;;;;;;;6.10;65.07;102795.09;5069269;28;20040;-91
2022/03/25 06:54:36;;;;;;;74.40;38.53;;;;;;;6.22;64.42;102800.38;5072670;28;20024;-91
2022/03/25 06:57:01;;;;;;;76.82;40.20;;;;;;;6.34;64.19;102792.44;5062020;28;20105;-91
2022/03/25 06:59:27;;;;;;;74.63;39.08;;;;;;;6.45;63.38;102797.72;5068189;28;20409;-91
2022/03/25 07:01:53;;;;;;;76.18;40.17;;;;;;;6.52;63.30;102798.56;5073678;28;21548;-92
2022/03/25 07:04:19;;;;;;;76.00;40.47;;;;;;;6.65;63.17;102797.66;5071376;28;20027;-91
2022/03/25 07:06:48;;;;;;;74.50;40.55;;;;;;;6.67;62.72;102780.00;5075952;28;20025;-92
2022/03/25 07:09:14;;;;;;;77.05;41.53;;;;;;;6.86;62.24;102792.28;5054061;28;20028;-92
2022/03/25 07:11:39;;;;;;;80.03;42.15;;;;;;;6.98;62.12;102796.63;5066403;28;20028;-91
2022/03/25 07:14:06;;;;;;;78.10;42.70;;;;;;;7.21;62.06;102791.22;5065928;28;20393;-92
2022/03/25 07:16:31;;;;;;;79.85;41.78;;;;;;;7.43;60.77;102787.53;5055093;28;20029;-90
2022/03/25 07:18:56;;;;;;;73.55;41.00;;;;;;;7.72;60.31;102800.56;5069536;28;20031;-91
2022/03/25 07:21:21;;;;;;;74.03;41.08;;;;;;;7.90;60.05;102794.25;5067091;28;20389;-91
2022/03/25 07:23:47;;;;;;;76.50;41.47;;;;;;;8.12;59.32;102796.72;5065979;28;20032;-91
2022/03/25 07:26:12;;;;;;;76.90;43.30;;;;;;;8.20;58.55;102794.88;5058120;28;20060;-91
2022/03/25 07:28:37;;;;;;;76.53;42.28;;;;;;;8.41;58.29;102813.25;5055291;28;20079;-90
2022/03/25 07:31:03;;;;;;;78.15;43.58;;;;;;;8.57;58.12;102811.31;5068830;28;20385;-90
2022/03/25 07:33:28;;;;;;;78.22;42.65;;;;;;;8.63;57.51;102802.41;5065970;28;20029;-90
2022/03/25 07:35:55;;;;;;;72.97;43.72;;;;;;;8.81;57.13;102817.22;5070404;28;20019;-93
2022/03/25 07:38:20;;;;;;;78.95;43.55;;;;;;;9.03;57.03;102816.06;5060516;28;20068;-93
2022/03/25 07:40:45;;;;;;;86.30;44.85;;;;;;;9.18;56.35;102828.25;5071117;28;20449;-93
2022/03/25 07:43:10;;;;;;;83.88;44.78;;;;;;;9.30;56.38;102824.56;5060265;28;20060;-93
2022/03/25 07:45:36;;;;;;;71.85;42.45;;;;;;;9.61;55.51;102820.53;5066726;28;20055;-94
2022/03/25 07:48:01;;;;;;;79.38;43.92;;;;;;;9.90;54.72;102824.53;5062925;28;20082;-94
2022/03/25 07:50:27;;;;;;;76.10;43.65;;;;;;;10.31;53.64;102828.28;5071757;28;20697;-95
2022/03/25 07:52:53;;;;;;;75.95;44.30;;;;;;;10.71;52.58;102836.41;5061659;28;20321;-94
2022/03/25 07:55:20;;;;;;;80.68;44.92;;;;;;;10.86;52.00;102821.91;5066263;28;20508;-93
2022/03/25 07:57:47;;;;;;;77.25;46.08;;;;;;;11.11;51.08;102836.47;5060190;28;20032;-94
2022/03/25 08:00:13;;;;;;;81.63;46.97;;;;;;;11.26;50.67;102840.59;5071820;28;20426;-94
2022/03/25 08:02:45;;;;;;;81.43;47.53;;;;;;;11.44;50.21;102850.84;5057649;28;20758;-94
2022/03/25 08:05:11;;;;;;;81.57;48.47;;;;;;;11.65;49.11;102843.25;5068922;28;20074;-93
2022/03/25 08:07:52;;;;;;;75.53;46.70;;;;;;;11.98;49.90;102841.59;5068975;28;20121;-95
2022/03/25 08:10:21;;;;;;;82.32;47.70;;;;;;;12.13;47.72;102846.56;5065447;28;20028;-94
2022/03/25 08:12:48;;;;;;;81.55;48.83;;;;;;;12.40;47.74;102844.06;5058383;28;20034;-93
2022/03/25 08:15:13;;;;;;;78.57;48.35;;;;;;;12.70;46.73;102842.34;5073437;28;20044;-95
2022/03/25 08:17:57;;;;;;;83.10;48.67;;;;;;;13.12;47.34;102855.41;5054873;28;20025;-94
2022/03/25 08:20:29;;;;;;;76.50;48.42;;;;;;;13.59;45.10;102851.34;5062027;28;20044;-86
2022/03/25 08:22:57;;;;;;;79.10;48.38;;;;;;;13.85;43.91;102853.16;5061029;28;20132;-96
2022/03/25 08:28:07;;;;;;;81.97;49.65;;;;;;;14.03;43.22;102858.84;5067313;28;20513;-90
2022/03/25 08:30:33;;;;;;;89.15;49.97;;;;;;;14.33;42.69;102860.47;5067281;28;20025;-91
2022/03/25 08:33:00;;;;;;;79.45;49.45;;;;;;;14.72;42.12;102849.31;5067497;28;20024;-94
2022/03/25 08:35:26;;;;;;;81.97;48.55;;;;;;;14.97;40.57;102861.81;5083963;28;20105;-93
2022/03/25 08:37:53;;;;;;;82.70;50.85;;;;;;;15.13;40.41;102862.97;5068194;28;20040;-93
2022/03/25 08:40:18;;;;;;;85.38;49.67;;;;;;;15.65;39.40;102866.34;5071863;28;20071;-93
2022/03/25 08:42:44;;;;;;;81.25;50.13;;;;;;;15.79;38.54;102863.09;5079018;28;20494;-93
2022/03/25 08:45:09;;;;;;;80.55;48.67;;;;;;;16.05;38.21;102860.25;5068481;28;20021;-94
2022/03/25 08:47:34;;;;;;;81.25;48.33;;;;;;;16.57;37.22;102859.81;5068267;28;20082;-94
2022/03/25 08:50:00;;;;;;;79.35;47.35;;;;;;;16.95;36.61;102876.06;5065335;28;20107;-93
2022/03/25 08:52:25;;;;;;;81.88;47.65;;;;;;;16.94;36.12;102875.19;5068222;28;20036;-94
2022/03/25 08:54:51;;;;;;;76.30;47.78;;;;;;;17.07;35.46;102865.63;5069628;28;20033;-94
2022/03/25 08:57:17;;;;;;;75.72;46.70;;;;;;;17.28;34.91;102868.25;5069471;28;20342;-93
2022/03/25 08:59:42;;;;;;;73.13;47.20;;;;;;;17.42;34.35;102869.34;5064122;28;20492;-93
2022/03/25 09:02:08;;;;;;;73.55;44.97;;;;;;;17.66;33.35;102872.69;5078694;28;20052;-94
2022/03/25 09:04:33;;;;;;;67.38;44.17;;;;;;;17.75;32.95;102870.50;5068249;28;20024;-94
2022/03/25 09:06:59;;;;;;;72.80;45.28;;;;;;;18.02;32.81;102882.63;5078467;28;20036;-94
2022/03/25 09:09:25;;;;;;;69.97;45.53;;;;;;;18.48;32.01;102863.25;5058491;28;20095;-92
2022/03/25 09:11:50;;;;;;;68.70;44.97;;;;;;;18.67;31.82;102872.09;5057212;28;20466;-92
2022/03/25 09:14:15;;;;;;;70.45;43.45;;;;;;;19.31;30.55;102874.06;5051140;28;20032;-93
2022/03/25 09:16:41;;;;;;;65.97;41.65;;;;;;;19.71;29.90;102869.09;5055389;28;20038;-93
2022/03/25 09:19:06;;;;;;;67.43;42.78;;;;;;;20.15;29.04;102868.38;5067230;28;20056;-93
2022/03/25 09:21:32;;;;;;;62.72;42.08;;;;;;;20.89;27.85;102881.88;5069758;28;20114;-90
2022/03/25 09:23:57;;;;;;;59.92;39.35;;;;;;;20.99;26.75;102879.47;5070723;28;20035;-90
2022/03/25 09:26:23;;;;;;;58.47;39.13;;;;;;;20.88;26.63;102882.84;5055502;28;20040;-91
2022/03/25 09:28:48;;;;;;;60.50;40.08;;;;;;;20.42;27.46;102876.63;5060668;28;20036;-92
2022/03/25 09:31:14;;;;;;;61.47;39.95;;;;;;;20.46;27.34;102878.19;5076651;28;20478;-90
2022/03/25 09:33:39;;;;;;;59.75;37.28;;;;;;;20.94;26.21;102876.16;5077420;28;20105;-90
2022/03/25 09:36:04;;;;;;;56.70;36.67;;;;;;;21.52;25.50;102880.59;5077080;28;20546;-90
2022/03/25 09:38:29;;;;;;;56.58;37.75;;;;;;;21.75;25.00;102878.25;5057184;28;20074;-91
2022/03/25 09:40:57;;;;;;;59.40;38.75;;;;;;;22.06;24.69;102869.78;5068719;28;20047;-91
2022/03/25 09:43:22;;;;;;;56.90;37.78;;;;;;;22.57;24.70;102869.03;5057958;28;20111;-91
2022/03/25 09:45:47;;;;;;;59.60;38.13;;;;;;;22.83;23.73;102876.25;5073584;28;20120;-90
2022/03/25 09:48:13;;;;;;;55.70;37.03;;;;;;;22.67;23.97;102878.31;5073100;28;20063;-91
2022/03/25 09:50:40;;;;;;;58.10;37.40;;;;;;;22.54;23.75;102872.88;5062305;28;20119;-91
2022/03/25 09:53:06;;;;;;;53.83;36.03;;;;;;;22.78;23.76;102877.53;5069762;28;20032;-90
2022/03/25 09:55:33;;;;;;;53.65;36.65;;;;;;;22.86;23.79;102886.88;5076106;28;20062;-91
2022/03/25 09:57:59;;;;;;;51.20;35.13;;;;;;;23.05;23.32;102878.31;5071503;28;20034;-91
2022/03/25 10:00:24;;;;;;;55.60;37.45;;;;;;;22.93;23.03;102883.75;5071758;28;20029;-92
2022/03/25 10:02:50;;;;;;;57.20;37.92;;;;;;;23.24;23.04;102883.31;5066403;28;20041;-92
2022/03/25 10:05:19;;;;;;;54.55;35.10;;;;;;;23.35;22.79;102883.38;5077556;28;20024;-91
2022/03/25 10:07:55;;;;;;;59.22;36.95;;;;;;;23.07;23.37;102878.22;5068232;28;20036;-91
2022/03/25 10:10:22;;;;;;;54.83;35.67;;;;;;;23.14;23.14;102878.66;5071776;28;20028;-92
2022/03/25 10:13:09;;;;;;;56.90;36.03;;;;;;;23.41;22.77;102873.03;5060215;28;20060;-91
2022/03/25 10:15:37;;;;;;;56.28;37.05;;;;;;;24.18;22.52;102879.94;5057161;28;20078;-90
2022/03/25 10:18:05;;;;;;;57.10;38.45;;;;;;;24.73;21.91;102875.66;5058400;28;20086;-90
2022/03/25 10:20:37;;;;;;;51.72;37.33;;;;;;;24.62;22.08;102869.34;5066520;28;20103;-91
2022/03/25 10:23:19;;;;;;;52.50;35.92;;;;;;;25.18;21.21;102875.75;5051750;28;20027;-90
2022/03/25 10:25:47;;;;;;;49.40;33.50;;;;;;;25.92;20.27;102864.19;5052277;28;20028;-91
2022/03/25 10:28:30;;;;;;;55.03;35.60;;;;;;;26.58;21.13;102867.63;5063022;28;20032;-91
2022/03/25 10:31:06;;;;;;;55.97;36.63;;;;;;;26.48;19.98;102866.72;5070384;28;20492;-91
2022/03/25 10:33:54;;;;;;;49.95;35.35;;;;;;;25.71;20.45;102877.75;5059873;28;20121;-91
2022/03/25 10:36:21;;;;;;;50.33;35.30;;;;;;;25.62;20.53;102867.63;5066274;28;20611;-90
2022/03/25 10:38:55;;;;;;;52.95;34.58;;;;;;;25.00;21.45;102866.31;5078793;28;20024;-91
2022/03/25 10:41:23;;;;;;;52.65;36.63;;;;;;;25.27;20.72;102868.66;5068171;28;20465;-91
2022/03/25 10:43:59;;;;;;;110.15;73.68;;;;;;;26.18;21.03;102870.19;5080715;28;20107;-90
2022/03/25 10:46:42;;;;;;;53.13;37.47;;;;;;;26.46;20.40;102855.94;5067694;28;20040;-90
2022/03/25 10:49:10;;;;;;;55.67;38.92;;;;;;;27.22;19.39;102870.16;5073348;28;20579;-91
2022/03/25 10:51:37;;;;;;;51.60;37.03;;;;;;;27.26;19.05;102868.88;5062103;28;20020;-91
2022/03/25 10:54:08;;;;;;;58.78;39.38;;;;;;;26.99;19.29;102865.84;5060608;28;20028;-90
2022/03/25 10:56:48;;;;;;;51.72;37.53;;;;;;;27.63;19.97;102865.53;5072491;28;20081;-91
2022/03/25 10:59:21;;;;;;;56.58;39.70;;;;;;;27.59;19.41;102865.91;5079590;28;20127;-90
2022/03/25 11:01:47;;;;;;;;;;;;;;;28.84;19.96;102854.06;5065410;28;20063;-90
2022/03/25 11:04:14;;;;;;;52.72;37.28;;;;;;;27.90;18.37;102850.31;5070755;28;19956;-91
2022/03/25 11:06:39;;;;;;;55.67;38.00;;;;;;;27.40;18.64;102853.09;5072887;28;20024;-91
2022/03/25 11:09:08;;;;;;;59.30;38.17;;;;;;;27.06;18.90;102864.31;5064711;28;20025;-92
2022/03/25 11:11:34;;;;;;;58.25;40.40;;;;;;;27.62;18.68;102855.56;5076637;28;20495;-91
2022/03/25 11:13:59;;;;;;;56.45;38.63;;;;;;;28.24;18.46;102848.84;5076827;28;20037;-91